createdAt,value
2023-03-26T00:01:57.671Z,6.70
2023-03-26T00:04:26.160Z,6.70
2023-03-26T00:06:57.591Z,6.70
2023-03-26T00:09:29.925Z,6.70
2023-03-26T00:12:01.302Z,6.70
2023-03-26T00:14:35.630Z,6.60
2023-03-26T00:17:08.380Z,6.60
2023-03-26T00:19:40.384Z,6.60
2023-03-26T00:22:13.559Z,6.70
2023-03-26T00:24:47.034Z,6.70
2023-03-26T00:27:18.423Z,6.70
2023-03-26T00:29:49.939Z,6.70
2023-03-26T00:32:21.545Z,6.60
2023-03-26T00:34:54.184Z,6.50
2023-03-26T00:37:26.758Z,6.50
2023-03-26T00:40:01.320Z,6.50
2023-03-26T00:42:33.104Z,6.50
2023-03-26T00:45:04.662Z,6.50
2023-03-26T00:47:37.274Z,6.50
2023-03-26T00:50:12.734Z,6.50
2023-03-26T00:52:46.305Z,6.50
2023-03-26T00:55:18.098Z,6.50
2023-03-26T00:57:49.509Z,6.50
2023-03-26T01:00:26.361Z,6.50
2023-03-26T01:02:58.722Z,6.40
2023-03-26T01:05:44.487Z,6.40
2023-03-26T01:08:22.530Z,6.30
2023-03-26T01:10:57.270Z,6.30
2023-03-26T01:13:28.715Z,6.30
2023-03-26T01:16:02.147Z,6.20
2023-03-26T01:18:36.558Z,6.20
2023-03-26T01:21:11.495Z,6.20
2023-03-26T01:23:48.909Z,6.20
2023-03-26T01:26:29.032Z,6.30
2023-03-26T01:29:03.750Z,6.40
2023-03-26T01:31:39.171Z,6.40
2023-03-26T01:34:14.092Z,6.50
2023-03-26T01:36:48.886Z,6.50
2023-03-26T01:39:25.311Z,6.50
2023-03-26T01:42:00.631Z,6.40
2023-03-26T01:44:35.983Z,6.30
2023-03-26T01:47:08.960Z,6.20
2023-03-26T01:49:40.369Z,6.30
2023-03-26T01:52:17.309Z,6.30
2023-03-26T01:54:49.221Z,6.40
2023-03-26T01:57:23.915Z,6.40
2023-03-26T02:00:11.857Z,6.40
2023-03-26T02:02:54.947Z,6.30
2023-03-26T02:05:30.929Z,6.30
2023-03-26T02:08:06.310Z,6.30
2023-03-26T02:10:42.590Z,6.30
2023-03-26T02:13:14.642Z,6.40
2023-03-26T02:15:58.655Z,6.30
2023-03-26T02:18:32.877Z,6.30
2023-03-26T02:21:06.535Z,6.20
2023-03-26T02:23:38.079Z,6.30
2023-03-26T02:26:11.262Z,6.40
2023-03-26T02:28:42.735Z,6.40
2023-03-26T02:31:16.178Z,6.50
2023-03-26T02:33:49.524Z,6.60
2023-03-26T02:36:22.695Z,6.60
2023-03-26T02:38:54.346Z,6.70
2023-03-26T02:41:25.914Z,6.80
2023-03-26T02:43:57.313Z,6.80
2023-03-26T02:46:28.894Z,6.70
2023-03-26T02:49:00.417Z,6.60
2023-03-26T02:51:33.554Z,6.60
2023-03-26T02:54:07.022Z,6.60
2023-03-26T02:56:38.624Z,6.70
2023-03-26T02:59:10.829Z,6.70
2023-03-26T03:01:43.167Z,6.80
2023-03-26T03:04:15.333Z,6.80
2023-03-26T03:06:47.291Z,6.90
2023-03-26T03:09:18.861Z,6.90
2023-03-26T03:11:50.375Z,6.90
2023-03-26T03:14:21.760Z,6.90
2023-03-26T03:16:53.923Z,6.90
2023-03-26T03:19:25.599Z,7.00
2023-03-26T03:21:57.199Z,7.00
2023-03-26T03:24:28.568Z,7.10
2023-03-26T03:27:00.043Z,7.20
2023-03-26T03:29:31.525Z,7.30
2023-03-26T03:32:03.159Z,7.30
2023-03-26T03:34:34.541Z,7.20
2023-03-26T03:37:06.025Z,7.20
2023-03-26T03:39:37.619Z,7.20
2023-03-26T03:42:09.127Z,7.30
2023-03-26T03:44:40.495Z,7.30
2023-03-26T03:47:13.763Z,7.30
2023-03-26T03:49:45.201Z,7.30
2023-03-26T03:52:18.399Z,7.30
2023-03-26T03:54:49.851Z,7.40
2023-03-26T03:57:21.982Z,7.40
2023-03-26T03:59:53.883Z,7.30
2023-03-26T04:02:28.333Z,7.30
2023-03-26T04:05:00.126Z,7.30
2023-03-26T04:07:33.212Z,7.20
2023-03-26T04:10:05.927Z,7.10
2023-03-26T04:12:37.755Z,7.00
2023-03-26T04:15:10.320Z,6.90
2023-03-26T04:17:43.183Z,7.00
2023-03-26T04:20:15.462Z,6.90
2023-03-26T04:22:47.488Z,6.90
2023-03-26T04:25:19.057Z,6.90
2023-03-26T04:27:50.666Z,6.80
2023-03-26T04:30:23.450Z,6.80
2023-03-26T04:32:56.546Z,6.80
2023-03-26T04:35:29.800Z,6.70
2023-03-26T04:38:01.684Z,6.70
2023-03-26T04:40:34.764Z,6.70
2023-03-26T04:43:06.844Z,6.60
2023-03-26T04:45:38.509Z,6.60
2023-03-26T04:48:13.201Z,6.60
2023-03-26T04:50:46.235Z,6.60
2023-03-26T04:53:21.097Z,6.70
2023-03-26T04:55:56.710Z,6.80
2023-03-26T04:58:30.369Z,6.70
2023-03-26T05:01:10.196Z,6.70
2023-03-26T05:03:38.438Z,6.70
2023-03-26T05:06:13.779Z,6.70
2023-03-26T05:08:45.246Z,6.70
2023-03-26T05:11:16.953Z,6.80
2023-03-26T05:13:48.435Z,6.80
2023-03-26T05:16:22.107Z,6.90
2023-03-26T05:18:54.481Z,7.00
2023-03-26T05:21:26.067Z,7.10
2023-03-26T05:23:57.464Z,7.20
2023-03-26T05:26:31.949Z,7.20
2023-03-26T05:29:03.771Z,7.40
2023-03-26T05:31:35.221Z,7.40
2023-03-26T05:34:06.613Z,7.40
2023-03-26T05:36:38.193Z,7.40
2023-03-26T05:39:09.692Z,7.40
2023-03-26T05:41:41.382Z,7.40
2023-03-26T05:44:12.852Z,7.30
2023-03-26T05:46:44.362Z,7.20
2023-03-26T05:49:16.056Z,7.10
2023-03-26T05:51:47.518Z,7.10
2023-03-26T05:54:18.964Z,7.00
2023-03-26T05:56:50.534Z,7.00
2023-03-26T05:59:21.954Z,7.10
2023-03-26T06:01:54.642Z,7.20
2023-03-26T06:04:28.246Z,7.30
2023-03-26T06:06:59.759Z,7.30
2023-03-26T06:09:31.549Z,7.30
2023-03-26T06:12:03.033Z,7.30
2023-03-26T06:14:34.837Z,7.40
2023-03-26T06:17:06.514Z,7.40
2023-03-26T06:19:38.182Z,7.40
2023-03-26T06:22:10.083Z,7.30
2023-03-26T06:24:41.806Z,7.20
2023-03-26T06:27:13.252Z,7.10
2023-03-26T06:29:44.709Z,7.10
2023-03-26T06:32:20.227Z,7.10
2023-03-26T06:34:50.026Z,7.10
2023-03-26T06:37:21.533Z,7.10
2023-03-26T06:39:52.946Z,7.10
2023-03-26T06:43:06.699Z,7.10
2023-03-26T06:44:57.443Z,7.00
2023-03-26T06:47:28.980Z,7.10
2023-03-26T06:50:00.596Z,7.10
2023-03-26T06:52:32.000Z,7.10
2023-03-26T06:55:03.587Z,7.10
2023-03-26T06:57:34.970Z,7.20
2023-03-26T07:00:09.289Z,7.20
2023-03-26T07:02:40.715Z,7.20
2023-03-26T07:05:12.778Z,7.40
2023-03-26T07:07:46.449Z,7.40
2023-03-26T07:10:17.588Z,7.50
2023-03-26T07:12:49.316Z,7.60
2023-03-26T07:15:20.932Z,7.70
2023-03-26T07:17:52.505Z,7.70
2023-03-26T07:20:24.821Z,7.70
2023-03-26T07:22:57.468Z,7.60
2023-03-26T07:25:30.323Z,7.50
2023-03-26T07:28:07.252Z,7.30
2023-03-26T07:30:43.972Z,7.20
2023-03-26T07:33:20.601Z,7.20
2023-03-26T07:35:55.150Z,7.20
2023-03-26T07:38:33.745Z,7.10
2023-03-26T07:41:09.582Z,7.00
2023-03-26T07:43:55.479Z,7.00
2023-03-26T07:46:31.795Z,7.10
2023-03-26T07:49:04.748Z,7.10
2023-03-26T07:51:37.103Z,7.00
2023-03-26T07:54:11.221Z,7.10
2023-03-26T07:56:46.412Z,7.00
2023-03-26T07:59:24.095Z,7.00
2023-03-26T08:02:06.356Z,7.00
2023-03-26T08:04:54.811Z,7.00
2023-03-26T08:07:32.059Z,7.00
2023-03-26T08:10:09.502Z,7.00
2023-03-26T08:12:45.446Z,7.00
2023-03-26T08:15:21.757Z,6.90
2023-03-26T08:17:56.551Z,6.90
2023-03-26T08:20:34.238Z,6.80
2023-03-26T08:23:10.900Z,6.80
2023-03-26T08:25:49.801Z,6.80
2023-03-26T08:28:29.087Z,6.80
2023-03-26T08:31:02.900Z,6.80
2023-03-26T08:33:38.250Z,6.80
2023-03-26T08:36:10.817Z,6.80
2023-03-26T08:38:42.300Z,6.80
2023-03-26T08:41:35.276Z,6.80
2023-03-26T08:44:48.838Z,6.80
2023-03-26T08:47:31.922Z,6.80
2023-03-26T08:50:30.163Z,6.80
2023-03-26T08:53:13.868Z,6.80
2023-03-26T08:55:54.702Z,6.90
2023-03-26T08:58:42.002Z,6.90
2023-03-26T09:01:35.267Z,7.00
2023-03-26T09:04:41.247Z,7.10
2023-03-26T09:07:46.825Z,7.20
2023-03-26T09:10:54.181Z,7.30
2023-03-26T09:13:53.138Z,7.30
2023-03-26T09:17:04.352Z,7.40
2023-03-26T09:20:12.408Z,7.40
2023-03-26T09:23:23.444Z,7.40
2023-03-26T09:26:22.790Z,7.40
2023-03-26T09:29:18.248Z,7.60
2023-03-26T09:32:31.885Z,7.60
2023-03-26T09:35:15.665Z,7.70
2023-03-26T09:38:02.764Z,7.70
2023-03-26T09:40:41.900Z,7.80
2023-03-26T09:43:37.269Z,8.00
2023-03-26T09:46:17.281Z,8.30
2023-03-26T09:49:20.311Z,8.50
2023-03-26T09:52:35.009Z,8.50
2023-03-26T09:55:32.972Z,8.60
2023-03-26T09:58:40.879Z,8.70
2023-03-26T10:01:18.224Z,8.80
2023-03-26T10:04:01.619Z,8.80
2023-03-26T10:06:46.901Z,8.90
2023-03-26T10:09:27.388Z,8.90
2023-03-26T10:12:12.299Z,8.90
2023-03-26T10:14:47.522Z,8.90
2023-03-26T10:17:35.651Z,9.00
2023-03-26T10:20:32.232Z,9.20
2023-03-26T10:23:11.982Z,9.30
2023-03-26T10:25:53.034Z,9.30
2023-03-26T10:28:28.747Z,9.40
2023-03-26T10:31:23.968Z,9.40
2023-03-26T10:34:01.278Z,9.40
2023-03-26T10:36:35.620Z,9.50
2023-03-26T10:39:38.913Z,9.60
2023-03-26T10:42:18.789Z,9.80
2023-03-26T10:48:21.989Z,10.50
2023-03-26T10:51:03.630Z,10.90
2023-03-26T10:53:38.934Z,11.20
2023-03-26T10:56:16.101Z,11.30
2023-03-26T10:58:50.158Z,11.30
2023-03-26T11:01:27.228Z,11.10
2023-03-26T11:04:01.849Z,10.90
2023-03-26T11:06:39.388Z,10.60
2023-03-26T11:09:21.473Z,10.30
2023-03-26T11:11:57.602Z,10.00
2023-03-26T11:14:35.187Z,9.80
2023-03-26T11:17:15.096Z,9.60
2023-03-26T11:19:51.955Z,9.50
2023-03-26T11:22:29.196Z,9.50
2023-03-26T11:25:19.565Z,9.60
2023-03-26T11:27:58.179Z,9.50
2023-03-26T11:30:35.985Z,9.50
2023-03-26T11:33:11.228Z,9.50
2023-03-26T11:35:46.649Z,9.50
2023-03-26T11:38:22.820Z,9.50
2023-03-26T11:40:59.961Z,9.50
2023-03-26T11:43:35.314Z,9.60
2023-03-26T11:46:10.832Z,9.70
2023-03-26T11:48:46.543Z,9.80
2023-03-26T11:51:21.629Z,9.90
2023-03-26T11:53:59.680Z,10.00
2023-03-26T11:56:37.116Z,10.00
2023-03-26T11:59:12.178Z,9.90
2023-03-26T12:01:49.208Z,9.90
2023-03-26T12:04:23.462Z,9.80
2023-03-26T12:06:57.647Z,9.90
2023-03-26T12:09:29.065Z,10.00
2023-03-26T12:12:04.959Z,10.10
2023-03-26T12:14:37.603Z,10.10
2023-03-26T12:17:11.759Z,10.30
2023-03-26T12:19:44.749Z,10.20
2023-03-26T12:22:32.847Z,10.30
2023-03-26T12:25:07.533Z,10.40
2023-03-26T12:27:42.093Z,10.40
2023-03-26T12:30:21.498Z,10.40
2023-03-26T12:32:55.237Z,10.70
2023-03-26T12:35:29.185Z,10.90
2023-03-26T12:38:19.441Z,11.00
2023-03-26T12:40:53.169Z,11.00
2023-03-26T12:44:54.548Z,11.10
2023-03-26T12:46:58.925Z,11.20
2023-03-26T12:48:34.662Z,11.60
2023-03-26T12:51:11.626Z,11.90
2023-03-26T12:53:58.780Z,12.30
2023-03-26T12:56:36.933Z,12.70
2023-03-26T12:59:25.679Z,12.60
2023-03-26T13:02:02.252Z,12.60
2023-03-26T13:07:47.148Z,12.60
2023-03-26T13:10:32.206Z,12.80
2023-03-26T13:13:10.770Z,12.70
2023-03-26T13:16:29.884Z,12.90
2023-03-26T13:19:04.449Z,12.90
2023-03-26T13:21:41.537Z,13.00
2023-03-26T13:24:19.255Z,13.10
2023-03-26T13:26:59.105Z,13.20
2023-03-26T13:29:34.669Z,13.10
2023-03-26T13:32:09.749Z,13.10
2023-03-26T13:34:45.911Z,13.10
2023-03-26T13:37:20.536Z,13.20
2023-03-26T13:39:57.603Z,13.50
2023-03-26T13:42:44.656Z,13.70
2023-03-26T13:45:23.759Z,13.90
2023-03-26T13:47:58.167Z,14.00
2023-03-26T13:50:31.846Z,14.10
2023-03-26T13:53:06.158Z,14.20
2023-03-26T13:55:40.607Z,14.10
2023-03-26T13:58:16.986Z,14.20
2023-03-26T14:00:55.123Z,14.20
2023-03-26T14:03:30.902Z,14.10
2023-03-26T14:06:06.824Z,13.80
2023-03-26T14:08:41.738Z,13.70
2023-03-26T14:11:16.185Z,13.70
2023-03-26T14:13:51.361Z,13.60
2023-03-26T14:16:27.346Z,13.50
2023-03-26T14:19:04.598Z,13.50
2023-03-26T14:21:53.513Z,13.40
2023-03-26T14:24:40.082Z,13.60
2023-03-26T14:27:22.423Z,13.60
2023-03-26T14:30:02.857Z,13.70
2023-03-26T14:32:45.784Z,13.80
2023-03-26T14:35:33.516Z,13.80
2023-03-26T14:38:34.123Z,13.90
2023-03-26T14:41:29.381Z,13.80
2023-03-26T14:44:48.670Z,13.60
2023-03-26T14:47:22.066Z,13.70
2023-03-26T14:50:37.499Z,13.60
2023-03-26T14:53:15.626Z,13.60
2023-03-26T14:55:56.689Z,13.20
2023-03-26T14:58:34.010Z,12.70
2023-03-26T15:01:27.219Z,12.10
2023-03-26T15:04:20.419Z,11.10
2023-03-26T15:07:19.648Z,10.10
2023-03-26T15:10:13.481Z,9.30
2023-03-26T15:12:53.261Z,8.80
2023-03-26T15:15:55.702Z,8.40
2023-03-26T15:18:57.454Z,8.20
2023-03-26T15:22:04.892Z,8.30
2023-03-26T15:25:16.382Z,8.50
2023-03-26T15:28:15.054Z,8.60
2023-03-26T15:31:15.389Z,8.60
2023-03-26T15:34:13.162Z,8.70
2023-03-26T15:37:15.132Z,8.90
2023-03-26T15:40:08.639Z,8.90
2023-03-26T15:42:51.583Z,8.90
2023-03-26T15:45:36.259Z,9.00
2023-03-26T15:48:44.214Z,9.00
2023-03-26T15:51:46.565Z,9.10
2023-03-26T15:54:17.941Z,9.20
2023-03-26T15:57:00.675Z,9.10
2023-03-26T15:59:41.874Z,9.10
2023-03-26T16:02:16.617Z,9.20
2023-03-26T16:04:52.252Z,9.30
2023-03-26T16:07:43.742Z,9.40
2023-03-26T16:10:29.030Z,9.40
2023-03-26T16:13:40.306Z,9.50
2023-03-26T16:16:28.476Z,9.40
2023-03-26T16:19:11.150Z,9.40
2023-03-26T16:21:49.754Z,9.30
2023-03-26T16:24:28.964Z,9.30
2023-03-26T16:27:37.552Z,9.30
2023-03-26T16:30:29.107Z,9.20
2023-03-26T16:33:06.617Z,9.20
2023-03-26T16:35:56.965Z,9.20
2023-03-26T16:38:31.798Z,9.20
2023-03-26T16:41:06.805Z,9.20
2023-03-26T16:43:50.192Z,9.30
2023-03-26T16:46:30.434Z,9.20
2023-03-26T16:49:06.833Z,9.50
2023-03-26T16:51:54.143Z,9.20
2023-03-26T16:54:30.050Z,8.10
2023-03-26T16:57:08.515Z,6.90
2023-03-26T17:00:05.682Z,6.30
2023-03-26T17:02:33.060Z,5.80
2023-03-26T17:05:10.772Z,5.60
2023-03-26T17:07:47.193Z,5.50
2023-03-26T17:10:23.548Z,5.40
2023-03-26T17:12:59.968Z,5.40
2023-03-26T17:15:37.585Z,5.30
2023-03-26T17:18:27.943Z,5.30
2023-03-26T17:21:03.909Z,5.20
2023-03-26T17:23:48.321Z,5.20
2023-03-26T17:26:23.042Z,5.20
2023-03-26T17:29:04.723Z,5.30
2023-03-26T17:31:43.328Z,5.30
2023-03-26T17:34:54.072Z,5.40
2023-03-26T17:37:45.690Z,5.50
2023-03-26T17:40:51.046Z,5.50
2023-03-26T17:43:46.700Z,5.50
2023-03-26T17:46:35.494Z,5.70
2023-03-26T17:49:10.772Z,5.80
2023-03-26T17:51:47.707Z,5.80
2023-03-26T17:54:26.291Z,5.90
2023-03-26T17:57:00.052Z,6.00
2023-03-26T17:59:33.162Z,6.00
2023-03-26T18:02:06.886Z,6.00
2023-03-26T18:04:41.950Z,6.00
2023-03-26T18:07:32.771Z,6.00
2023-03-26T18:10:14.998Z,6.20
2023-03-26T18:13:10.812Z,6.20
2023-03-26T18:15:58.172Z,6.30
2023-03-26T18:18:33.890Z,6.40
2023-03-26T18:21:07.848Z,6.30
2023-03-26T18:23:42.414Z,6.30
2023-03-26T18:26:17.301Z,6.20
2023-03-26T18:28:51.668Z,6.00
2023-03-26T18:31:26.165Z,5.90
2023-03-26T18:34:00.001Z,5.80
2023-03-26T18:36:33.184Z,5.70
2023-03-26T18:39:13.037Z,5.50
2023-03-26T18:41:45.814Z,5.50
2023-03-26T18:44:19.667Z,5.50
2023-03-26T18:46:54.786Z,5.50
2023-03-26T18:49:29.658Z,5.40
2023-03-26T18:52:02.388Z,5.50
2023-03-26T18:54:36.745Z,5.50
2023-03-26T18:57:15.591Z,5.50
2023-03-26T18:59:48.893Z,5.50
2023-03-26T19:02:23.138Z,5.40
2023-03-26T19:04:56.747Z,5.30
2023-03-26T19:07:28.874Z,5.20
2023-03-26T19:10:01.969Z,5.20
2023-03-26T19:12:35.757Z,5.10
2023-03-26T19:15:09.806Z,4.90
2023-03-26T19:17:44.201Z,4.90
2023-03-26T19:20:20.607Z,4.80
2023-03-26T19:22:59.007Z,4.80
2023-03-26T19:25:32.984Z,4.80
2023-03-26T19:28:06.521Z,4.80
2023-03-26T19:30:42.021Z,4.80
2023-03-26T19:33:18.446Z,4.90
2023-03-26T19:35:54.216Z,4.90
2023-03-26T19:38:28.769Z,5.10
2023-03-26T19:41:03.192Z,5.20
2023-03-26T19:43:37.776Z,5.40
2023-03-26T19:46:13.985Z,5.60
2023-03-26T19:48:49.410Z,5.80
2023-03-26T19:51:24.009Z,5.80
2023-03-26T19:53:57.179Z,5.80
2023-03-26T19:56:29.226Z,5.70
2023-03-26T19:59:00.755Z,5.70
2023-03-26T20:01:33.252Z,5.70
2023-03-26T20:04:07.619Z,5.70
2023-03-26T20:06:43.617Z,5.70
2023-03-26T20:09:13.888Z,5.70
2023-03-26T20:11:47.130Z,5.60
2023-03-26T20:14:21.981Z,5.80
2023-03-26T20:16:53.670Z,5.80
2023-03-26T20:19:25.812Z,5.80
2023-03-26T20:21:57.313Z,5.80
2023-03-26T20:24:28.836Z,5.70
2023-03-26T20:27:00.342Z,5.60
2023-03-26T20:29:31.762Z,5.50
2023-03-26T20:32:05.945Z,5.50
2023-03-26T20:34:38.422Z,5.50
2023-03-26T20:37:09.903Z,5.50
2023-03-26T20:39:41.553Z,5.50
2023-03-26T20:42:15.823Z,5.50
2023-03-26T20:44:47.300Z,5.50
2023-03-26T20:47:18.846Z,5.60
2023-03-26T20:49:50.797Z,5.70
2023-03-26T20:52:23.928Z,5.70
2023-03-26T20:54:55.311Z,5.80
2023-03-26T20:57:27.280Z,5.80
2023-03-26T20:59:59.757Z,5.80
2023-03-26T21:02:31.314Z,5.70
2023-03-26T21:05:02.838Z,5.70
2023-03-26T21:07:34.699Z,5.60
2023-03-26T21:10:08.743Z,5.60
2023-03-26T21:12:44.090Z,5.60
2023-03-26T21:15:23.589Z,5.60
2023-03-26T21:17:52.540Z,5.50
2023-03-26T21:20:27.830Z,5.50
2023-03-26T21:23:04.897Z,5.40
2023-03-26T21:25:40.856Z,5.40
2023-03-26T21:28:35.477Z,5.30
2023-03-26T21:31:00.494Z,5.30
2023-03-26T21:36:15.568Z,5.20
2023-03-26T21:41:40.417Z,5.10
2023-03-26T21:44:12.065Z,5.10
2023-03-26T21:46:45.855Z,4.90
2023-03-26T21:49:18.857Z,4.90
2023-03-26T21:51:53.683Z,4.90
2023-03-26T21:54:28.282Z,4.90
2023-03-26T21:57:08.148Z,4.90
2023-03-26T21:59:42.981Z,4.80
2023-03-26T22:02:19.137Z,4.80
2023-03-26T22:04:54.983Z,4.70
2023-03-26T22:07:30.234Z,4.70
2023-03-26T22:10:01.873Z,4.70
2023-03-26T22:12:33.726Z,4.70
2023-03-26T22:15:05.444Z,4.70
2023-03-26T22:17:36.931Z,4.60
2023-03-26T22:20:13.380Z,4.60
2023-03-26T22:22:47.430Z,4.60
2023-03-26T22:25:19.687Z,4.50
2023-03-26T22:27:52.857Z,4.50
2023-03-26T22:30:25.542Z,4.50
2023-03-26T22:32:56.880Z,4.50
2023-03-26T22:35:28.645Z,4.50
2023-03-26T22:38:00.910Z,4.50
2023-03-26T22:40:33.032Z,4.40
2023-03-26T22:43:04.777Z,4.40
2023-03-26T22:45:38.179Z,4.40
2023-03-26T22:48:10.977Z,4.30
2023-03-26T22:50:42.517Z,4.20
2023-03-26T22:53:14.004Z,4.10
2023-03-26T22:55:45.418Z,4.10
2023-03-26T22:58:17.001Z,4.00
2023-03-26T23:00:51.037Z,4.00
2023-03-26T23:03:35.108Z,4.00
2023-03-26T23:05:58.652Z,3.90
2023-03-26T23:08:31.429Z,3.90
2023-03-26T23:11:03.388Z,3.90
2023-03-26T23:13:34.897Z,3.90
2023-03-26T23:16:10.048Z,3.90
2023-03-26T23:18:42.058Z,3.90
2023-03-26T23:21:16.824Z,3.90
2023-03-26T23:23:48.922Z,3.90
2023-03-26T23:26:20.327Z,3.90
2023-03-26T23:28:52.071Z,4.00
2023-03-26T23:31:25.184Z,4.00
2023-03-26T23:33:57.226Z,4.00
2023-03-26T23:36:29.181Z,4.00
2023-03-26T23:39:01.635Z,4.00
2023-03-26T23:41:33.719Z,4.00
2023-03-26T23:44:05.184Z,4.00
2023-03-26T23:46:36.672Z,4.10
2023-03-26T23:49:08.186Z,4.10
2023-03-26T23:51:39.872Z,4.10
2023-03-26T23:54:11.596Z,4.10
2023-03-26T23:56:43.061Z,4.10
2023-03-26T23:59:14.423Z,4.10
